Terminal Aerodrome Forecast
Issued by NWS

Home | Current Version | Previous Version | Text Only | Print | Product List | Glossary On
Versions: 1 2 3 4 5 6 7 8 9 10 11 12 13 14 15 16 17 18 19 20 21 22 23 24 25 26
000
FTUS43 KSGF 152330
TAFJLN
TAF
KJLN 152330Z 1600/1624 VRB03KT 1/4SM FG OVC003
     FM160700 12012KT 2SM -SHRA BR OVC003
     FM161400 16014G22KT 3SM -SHRA BR VCTS BKN007 OVC040CB
     FM161800 18013G22KT P6SM BKN025 OVC040=

USA.gov is the U.S. government's official web portal to all federal, state and local government web resources and services.